createdAt,value
2023-01-12T00:02:32.478Z,89.97
2023-01-12T00:05:05.210Z,89.80
2023-01-12T00:07:38.182Z,89.48
2023-01-12T00:10:15.413Z,90.39
2023-01-12T00:12:48.353Z,91.17
2023-01-12T00:15:40.991Z,91.04
2023-01-12T00:18:13.527Z,90.57
2023-01-12T00:20:51.540Z,90.68
2023-01-12T00:23:23.987Z,90.85
2023-01-12T00:25:56.586Z,89.93
2023-01-12T00:28:29.476Z,89.55
2023-01-12T00:31:04.926Z,89.08
2023-01-12T00:33:38.929Z,89.09
2023-01-12T00:36:17.360Z,89.69
2023-01-12T00:38:50.219Z,89.31
2023-01-12T00:41:36.934Z,89.43
2023-01-12T00:44:27.205Z,89.38
2023-01-12T00:47:00.464Z,89.48
2023-01-12T00:49:33.155Z,89.22
2023-01-12T00:52:11.377Z,89.56
2023-01-12T00:54:45.978Z,89.97
2023-01-12T00:57:19.443Z,90.10
2023-01-12T00:59:55.615Z,89.67
2023-01-12T01:02:31.369Z,90.09
2023-01-12T01:05:05.932Z,89.83
2023-01-12T01:07:39.244Z,89.94
2023-01-12T01:10:13.738Z,90.41
2023-01-12T01:12:46.496Z,90.83
2023-01-12T01:15:19.116Z,91.61
2023-01-12T01:17:51.642Z,91.40
2023-01-12T01:20:24.521Z,91.12
2023-01-12T01:22:57.567Z,91.45
2023-01-12T01:25:30.823Z,91.41
2023-01-12T01:28:04.088Z,91.34
2023-01-12T01:30:36.488Z,90.97
2023-01-12T01:33:09.012Z,91.20
2023-01-12T01:35:41.831Z,91.29
2023-01-12T01:38:17.660Z,90.88
2023-01-12T01:40:50.199Z,90.56
2023-01-12T01:43:25.432Z,90.34
2023-01-12T01:46:04.007Z,90.84
2023-01-12T01:48:40.904Z,91.09
2023-01-12T01:51:17.286Z,90.77
2023-01-12T01:53:51.575Z,90.26
2023-01-12T01:56:27.913Z,89.95
2023-01-12T01:59:06.583Z,90.03
2023-01-12T02:01:40.068Z,90.35
2023-01-12T02:04:13.026Z,91.18
2023-01-12T02:06:46.007Z,91.59
2023-01-12T02:09:22.800Z,91.76
2023-01-12T02:12:14.527Z,91.59
2023-01-12T02:15:08.495Z,92.01
2023-01-12T02:17:53.217Z,92.10
2023-01-12T02:20:48.592Z,91.78
2023-01-12T02:23:47.182Z,92.75
2023-01-12T02:26:57.753Z,92.42
2023-01-12T02:30:03.137Z,92.50
2023-01-12T02:32:46.735Z,92.47
2023-01-12T02:35:27.964Z,91.72
2023-01-12T02:38:09.531Z,91.58
2023-01-12T02:40:49.211Z,91.87
2023-01-12T02:43:27.132Z,92.35
2023-01-12T02:46:07.213Z,92.52
2023-01-12T02:48:47.083Z,91.96
2023-01-12T02:51:25.301Z,91.31
2023-01-12T02:54:04.244Z,90.99
2023-01-12T02:56:41.129Z,90.58
2023-01-12T02:59:18.038Z,90.78
2023-01-12T03:01:53.461Z,91.06
2023-01-12T03:04:30.253Z,91.56
2023-01-12T03:07:33.238Z,91.25
2023-01-12T03:10:18.141Z,90.26
2023-01-12T03:12:52.794Z,89.94
2023-01-12T03:15:28.930Z,90.20
2023-01-12T03:18:05.346Z,90.60
2023-01-12T03:20:40.809Z,90.97
2023-01-12T03:23:17.524Z,90.51
2023-01-12T03:25:53.210Z,89.59
2023-01-12T03:28:29.139Z,88.97
2023-01-12T03:31:07.804Z,88.49
2023-01-12T03:33:41.379Z,87.97
2023-01-12T03:36:21.671Z,88.27
2023-01-12T03:39:03.112Z,87.64
2023-01-12T03:41:46.685Z,86.98
2023-01-12T03:44:29.128Z,86.26
2023-01-12T03:47:06.490Z,85.50
2023-01-12T03:49:42.815Z,85.44
2023-01-12T03:52:17.004Z,84.83
2023-01-12T03:54:51.752Z,84.66
2023-01-12T03:57:24.666Z,84.28
2023-01-12T04:00:00.868Z,83.84
2023-01-12T04:02:34.324Z,84.08
2023-01-12T04:05:08.924Z,84.11
2023-01-12T04:07:41.372Z,83.94
2023-01-12T04:10:14.339Z,83.92
2023-01-12T04:12:46.820Z,84.33
2023-01-12T04:15:19.253Z,84.74
2023-01-12T04:17:51.722Z,85.21
2023-01-12T04:20:24.533Z,84.95
2023-01-12T04:22:56.884Z,84.81
2023-01-12T04:25:29.534Z,84.85
2023-01-12T04:28:02.460Z,85.22
2023-01-12T04:30:36.184Z,84.78
2023-01-12T04:33:11.525Z,84.29
2023-01-12T04:35:44.342Z,83.82
2023-01-12T04:38:18.225Z,83.27
2023-01-12T04:40:56.426Z,83.03
2023-01-12T04:43:28.760Z,83.05
2023-01-12T04:46:05.642Z,82.58
2023-01-12T04:48:39.311Z,82.41
2023-01-12T04:51:12.641Z,82.39
2023-01-12T04:53:44.997Z,82.36
2023-01-12T04:56:18.291Z,82.02
2023-01-12T04:58:55.901Z,82.03
2023-01-12T05:01:29.633Z,81.80
2023-01-12T05:04:02.449Z,81.52
2023-01-12T05:06:34.895Z,81.95
2023-01-12T05:09:24.583Z,81.78
2023-01-12T05:11:56.982Z,82.30
2023-01-12T05:14:30.404Z,82.53
2023-01-12T05:17:03.204Z,82.31
2023-01-12T05:19:35.636Z,82.45
2023-01-12T05:22:08.569Z,82.56
2023-01-12T05:24:40.932Z,82.32
2023-01-12T05:27:13.766Z,82.50
2023-01-12T05:29:49.553Z,83.08
2023-01-12T05:32:22.209Z,83.04
2023-01-12T05:34:54.595Z,83.30
2023-01-12T05:37:27.836Z,82.96
2023-01-12T05:40:00.651Z,83.24
2023-01-12T05:42:50.765Z,82.66
2023-01-12T05:45:23.172Z,82.37
2023-01-12T05:48:02.030Z,82.25
2023-01-12T05:50:34.533Z,82.18
2023-01-12T05:53:13.609Z,81.68
2023-01-12T05:55:47.683Z,81.92
2023-01-12T05:58:20.030Z,82.38
2023-01-12T06:00:52.801Z,81.95
2023-01-12T06:03:27.708Z,82.75
2023-01-12T06:06:00.304Z,82.48
2023-01-12T06:08:32.832Z,82.08
2023-01-12T06:11:06.153Z,82.14
2023-01-12T06:13:56.267Z,81.91
2023-01-12T06:16:32.023Z,81.19
2023-01-12T06:19:15.785Z,80.64
2023-01-12T06:21:48.647Z,80.44
2023-01-12T06:24:21.654Z,80.57
2023-01-12T06:26:54.698Z,80.36
2023-01-12T06:29:27.124Z,80.63
2023-01-12T06:31:59.499Z,80.70
2023-01-12T06:34:35.429Z,80.97
2023-01-12T06:37:08.649Z,81.19
2023-01-12T06:39:41.456Z,80.48
2023-01-12T06:42:33.394Z,80.53
2023-01-12T06:45:06.425Z,80.56
2023-01-12T06:47:49.483Z,80.46
2023-01-12T06:50:22.645Z,80.52
2023-01-12T06:52:55.814Z,81.09
2023-01-12T06:55:28.789Z,81.43
2023-01-12T06:58:04.811Z,81.65
2023-01-12T07:00:37.474Z,81.85
2023-01-12T07:03:14.321Z,81.37
2023-01-12T07:05:47.060Z,81.16
2023-01-12T07:08:19.899Z,80.89
2023-01-12T07:10:52.516Z,81.62
2023-01-12T07:13:25.181Z,81.66
2023-01-12T07:15:59.103Z,81.45
2023-01-12T07:18:49.624Z,81.56
2023-01-12T07:21:22.411Z,81.06
2023-01-12T07:23:54.938Z,80.74
2023-01-12T07:26:27.571Z,80.26
2023-01-12T07:28:59.933Z,79.87
2023-01-12T07:31:33.473Z,80.07
2023-01-12T07:34:05.926Z,80.17
2023-01-12T07:36:38.429Z,79.83
2023-01-12T07:39:12.959Z,79.69
2023-01-12T07:42:14.516Z,80.00
2023-01-12T07:44:46.835Z,79.59
2023-01-12T07:47:25.271Z,79.98
2023-01-12T07:49:57.845Z,79.91
2023-01-12T07:52:30.316Z,79.66
2023-01-12T07:55:02.840Z,79.91
2023-01-12T07:58:26.045Z,79.35
2023-01-12T08:01:18.226Z,79.11
2023-01-12T08:03:53.383Z,79.45
2023-01-12T08:06:43.597Z,79.82
2023-01-12T08:09:16.020Z,79.17
2023-01-12T08:11:48.485Z,79.10
2023-01-12T08:14:30.438Z,79.14
2023-01-12T08:17:04.732Z,78.99
2023-01-12T08:19:42.189Z,78.49
2023-01-12T08:22:20.286Z,78.58
2023-01-12T08:24:56.839Z,79.10
2023-01-12T08:27:33.353Z,78.96
2023-01-12T08:30:08.875Z,78.84
2023-01-12T08:32:41.370Z,79.37
2023-01-12T08:35:16.349Z,79.56
2023-01-12T08:37:48.819Z,79.51
2023-01-12T08:40:21.428Z,79.40
2023-01-12T08:42:53.750Z,79.28
2023-01-12T08:45:26.444Z,79.27
2023-01-12T08:47:59.578Z,79.01
2023-01-12T08:50:32.026Z,79.38
2023-01-12T08:53:04.476Z,79.60
2023-01-12T08:55:36.965Z,79.40
2023-01-12T08:58:09.446Z,79.46
2023-01-12T09:00:42.280Z,78.61
2023-01-12T09:03:14.673Z,78.08
2023-01-12T09:05:49.989Z,78.63
2023-01-12T09:08:22.618Z,78.49
2023-01-12T09:11:19.931Z,78.21
2023-01-12T09:14:01.509Z,78.26
2023-01-12T09:16:41.049Z,78.38
2023-01-12T09:19:13.695Z,77.59
2023-01-12T09:21:46.250Z,77.73
2023-01-12T09:24:18.881Z,77.46
2023-01-12T09:26:51.382Z,77.03
2023-01-12T09:29:23.896Z,76.87
2023-01-12T09:31:56.716Z,76.92
2023-01-12T09:34:29.517Z,76.65
2023-01-12T09:37:02.423Z,76.61
2023-01-12T09:39:34.831Z,76.66
2023-01-12T09:42:33.535Z,76.72
2023-01-12T09:45:32.124Z,76.92
2023-01-12T09:48:05.202Z,76.61
2023-01-12T09:50:41.006Z,76.78
2023-01-12T09:53:20.234Z,76.58
2023-01-12T09:56:03.102Z,77.10
2023-01-12T09:58:52.580Z,77.81
2023-01-12T10:01:29.573Z,77.58
2023-01-12T10:04:05.273Z,77.49
2023-01-12T10:06:37.760Z,76.87
2023-01-12T10:09:14.935Z,76.94
2023-01-12T10:12:01.954Z,76.56
2023-01-12T10:15:09.311Z,76.61
2023-01-12T10:17:51.918Z,76.67
2023-01-12T10:20:32.215Z,76.24
2023-01-12T10:23:16.836Z,76.07
2023-01-12T10:25:51.662Z,75.48
2023-01-12T10:28:25.543Z,74.61
2023-01-12T10:30:59.131Z,74.78
2023-01-12T10:33:34.398Z,74.47
2023-01-12T10:36:07.980Z,75.10
2023-01-12T10:38:55.626Z,75.21
2023-01-12T10:41:29.102Z,74.48
2023-01-12T10:44:16.927Z,74.05
2023-01-12T10:47:12.007Z,73.86
2023-01-12T10:49:44.688Z,73.28
2023-01-12T10:53:12.181Z,73.08
2023-01-12T10:55:47.520Z,73.68
2023-01-12T10:58:28.302Z,73.63
2023-01-12T11:01:01.559Z,74.23
2023-01-12T11:03:37.478Z,73.85
2023-01-12T11:06:27.862Z,73.25
2023-01-12T11:09:00.528Z,73.18
2023-01-12T11:11:34.472Z,73.95
2023-01-12T11:14:13.188Z,74.04
2023-01-12T11:16:51.743Z,74.34
2023-01-12T11:19:30.732Z,74.62
2023-01-12T11:22:10.272Z,74.44
2023-01-12T11:24:47.599Z,74.54
2023-01-12T11:27:23.682Z,74.71
2023-01-12T11:30:00.260Z,75.15
2023-01-12T11:32:44.153Z,74.85
2023-01-12T11:35:29.521Z,75.10
2023-01-12T11:38:02.452Z,75.35
2023-01-12T11:40:37.720Z,74.64
2023-01-12T11:43:52.613Z,74.91
2023-01-12T11:46:29.984Z,74.50
2023-01-12T11:49:12.692Z,74.84
2023-01-12T11:51:49.030Z,74.13
2023-01-12T11:54:22.189Z,73.78
2023-01-12T11:57:20.620Z,73.37
2023-01-12T12:00:03.979Z,72.88
2023-01-12T12:02:50.353Z,71.61
2023-01-12T12:05:36.427Z,71.01
2023-01-12T12:08:25.456Z,70.89
2023-01-12T12:11:06.691Z,70.21
2023-01-12T12:13:50.905Z,69.78
2023-01-12T12:16:32.179Z,69.39
2023-01-12T12:19:23.414Z,69.22
2023-01-12T12:22:05.389Z,68.48
2023-01-12T12:25:04.481Z,68.71
2023-01-12T12:27:53.974Z,68.96
2023-01-12T12:30:40.548Z,68.13
2023-01-12T12:33:23.115Z,68.14
2023-01-12T12:36:08.850Z,68.36
2023-01-12T12:38:56.412Z,67.65
2023-01-12T12:41:56.078Z,67.74
2023-01-12T12:45:02.961Z,68.15
2023-01-12T12:47:54.144Z,68.10
2023-01-12T12:50:30.500Z,68.39
2023-01-12T12:53:14.162Z,68.89
2023-01-12T12:55:47.795Z,68.96
2023-01-12T12:58:44.550Z,69.14
2023-01-12T13:01:57.220Z,69.67
2023-01-12T13:05:07.293Z,69.22
2023-01-12T13:07:46.714Z,68.87
2023-01-12T13:10:24.556Z,69.27
2023-01-12T13:13:23.648Z,69.25
2023-01-12T13:16:45.066Z,69.57
2023-01-12T13:19:41.104Z,69.90
2023-01-12T13:22:43.801Z,69.52
2023-01-12T13:25:47.584Z,69.89
2023-01-12T13:28:22.863Z,69.52
2023-01-12T13:30:57.216Z,69.66
2023-01-12T13:33:30.839Z,69.68
2023-01-12T13:36:10.698Z,68.96
2023-01-12T13:38:53.753Z,69.53
2023-01-12T13:41:50.066Z,69.64
2023-01-12T13:44:27.847Z,68.96
2023-01-12T13:47:09.667Z,69.05
2023-01-12T13:49:51.987Z,68.79
2023-01-12T13:52:32.096Z,68.86
2023-01-12T13:55:06.230Z,68.91
2023-01-12T13:57:38.749Z,68.62
2023-01-12T14:00:23.851Z,68.79
2023-01-12T14:02:57.430Z,68.75
2023-01-12T14:05:52.156Z,68.82
2023-01-12T14:08:52.054Z,68.84
2023-01-12T14:11:45.888Z,68.83
2023-01-12T14:14:56.246Z,68.34
2023-01-12T14:17:47.740Z,69.15
2023-01-12T14:20:23.136Z,69.10
2023-01-12T14:23:16.133Z,68.97
2023-01-12T14:26:04.220Z,68.86
2023-01-12T14:28:42.460Z,69.05
2023-01-12T14:31:25.680Z,69.21
2023-01-12T14:34:00.947Z,68.90
2023-01-12T14:36:38.371Z,68.88
2023-01-12T14:39:17.086Z,68.88
2023-01-12T14:42:14.314Z,68.83
2023-01-12T14:45:14.756Z,69.29
2023-01-12T14:47:47.174Z,69.13
2023-01-12T14:50:22.271Z,68.59
2023-01-12T14:52:54.631Z,68.74
2023-01-12T14:55:41.649Z,68.96
2023-01-12T14:58:22.419Z,69.08
2023-01-12T15:00:55.001Z,68.67
2023-01-12T15:03:35.368Z,68.79
2023-01-12T15:06:18.723Z,68.59
2023-01-12T15:09:00.363Z,68.44
2023-01-12T15:11:36.559Z,68.70
2023-01-12T15:14:20.948Z,69.11
2023-01-12T15:17:11.751Z,69.43
2023-01-12T15:20:01.346Z,69.14
2023-01-12T15:22:51.556Z,68.94
2023-01-12T15:25:39.340Z,69.41
2023-01-12T15:28:11.726Z,69.37
2023-01-12T15:30:44.839Z,69.67
2023-01-12T15:33:17.647Z,69.77
2023-01-12T15:35:50.302Z,69.74
2023-01-12T15:38:22.744Z,70.35
2023-01-12T15:40:55.287Z,70.32
2023-01-12T15:43:27.819Z,70.09
2023-01-12T15:46:00.459Z,69.96
2023-01-12T15:48:33.154Z,69.55
2023-01-12T15:51:05.850Z,69.88
2023-01-12T15:53:38.312Z,69.88
2023-01-12T15:56:15.381Z,70.03
2023-01-12T15:58:47.893Z,70.53
2023-01-12T16:01:21.476Z,70.41
2023-01-12T16:04:24.940Z,70.13
2023-01-12T16:06:46.930Z,70.19
2023-01-12T16:09:19.815Z,70.25
2023-01-12T16:11:52.220Z,69.99
2023-01-12T16:14:25.158Z,70.65
2023-01-12T16:16:57.835Z,70.94
2023-01-12T16:19:30.660Z,70.97
2023-01-12T16:22:03.152Z,70.95
2023-01-12T16:24:36.975Z,71.07
2023-01-12T16:27:09.578Z,71.01
2023-01-12T16:29:42.255Z,71.69
2023-01-12T16:32:15.330Z,71.57
2023-01-12T16:34:47.951Z,71.57
2023-01-12T16:37:23.189Z,71.48
2023-01-12T16:39:57.050Z,71.69
2023-01-12T16:42:29.821Z,71.27
2023-01-12T16:45:02.519Z,71.35
2023-01-12T16:47:35.278Z,71.73
2023-01-12T16:50:10.055Z,71.54
2023-01-12T16:53:02.850Z,71.99
2023-01-12T16:55:41.727Z,71.83
2023-01-12T16:58:12.581Z,71.89
2023-01-12T17:00:45.253Z,71.99
2023-01-12T17:03:17.852Z,71.83
2023-01-12T17:05:52.276Z,71.25
2023-01-12T17:08:29.521Z,72.01
2023-01-12T17:11:07.675Z,72.07
2023-01-12T17:13:41.329Z,71.68
2023-01-12T17:16:15.047Z,72.44
2023-01-12T17:18:50.033Z,72.17
2023-01-12T17:21:23.279Z,72.30
2023-01-12T17:23:59.329Z,71.95
2023-01-12T17:26:34.267Z,72.52
2023-01-12T17:29:06.951Z,72.63
2023-01-12T17:31:40.341Z,72.41
2023-01-12T17:34:17.411Z,72.33
2023-01-12T17:37:13.366Z,71.99
2023-01-12T17:39:59.143Z,72.12
2023-01-12T17:42:49.433Z,72.27
2023-01-12T17:45:21.899Z,72.30
2023-01-12T17:48:00.447Z,72.20
2023-01-12T17:50:33.054Z,72.03
2023-01-12T17:53:28.495Z,72.00
2023-01-12T17:56:06.575Z,72.36
2023-01-12T17:58:39.135Z,72.43
2023-01-12T18:01:15.320Z,72.23
2023-01-12T18:03:48.100Z,72.30
2023-01-12T18:06:26.388Z,72.16
2023-01-12T18:09:49.524Z,72.44
2023-01-12T18:15:52.930Z,72.81
2023-01-12T18:18:27.392Z,72.67
2023-01-12T18:21:06.039Z,72.36
2023-01-12T18:23:42.192Z,72.73
2023-01-12T18:26:16.702Z,72.65
2023-01-12T18:28:49.272Z,72.57
2023-01-12T18:31:24.226Z,72.61
2023-01-12T18:34:00.923Z,73.21
2023-01-12T18:36:34.483Z,72.54
2023-01-12T18:39:08.925Z,72.90
2023-01-12T18:42:08.969Z,72.68
2023-01-12T18:44:44.177Z,72.76
2023-01-12T18:47:50.437Z,73.08
2023-01-12T18:50:41.813Z,72.68
2023-01-12T18:53:25.844Z,73.22
2023-01-12T18:56:08.106Z,73.05
2023-01-12T18:58:43.243Z,73.28
2023-01-12T19:01:25.495Z,73.32
2023-01-12T19:04:39.785Z,73.05
2023-01-12T19:07:45.153Z,72.81
2023-01-12T19:10:42.118Z,72.92
2023-01-12T19:13:32.024Z,73.28
2023-01-12T19:16:22.581Z,73.45
2023-01-12T19:18:55.166Z,73.73
2023-01-12T19:21:47.853Z,73.40
2023-01-12T19:24:38.073Z,73.74
2023-01-12T19:27:40.707Z,73.93
2023-01-12T19:30:14.784Z,74.00
2023-01-12T19:32:47.620Z,73.61
2023-01-12T19:35:20.440Z,73.67
2023-01-12T19:37:53.230Z,73.49
2023-01-12T19:40:33.208Z,73.61
2023-01-12T19:43:12.909Z,73.69
2023-01-12T19:45:47.053Z,73.60
2023-01-12T19:48:38.705Z,73.79
2023-01-12T19:51:13.064Z,73.76
2023-01-12T19:53:45.677Z,73.91
2023-01-12T19:56:18.513Z,74.09
2023-01-12T19:58:51.942Z,74.33
2023-01-12T20:01:25.200Z,74.30
2023-01-12T20:03:57.869Z,74.27
2023-01-12T20:06:30.499Z,74.62
2023-01-12T20:09:02.842Z,74.84
2023-01-12T20:11:35.329Z,75.09
2023-01-12T20:14:07.743Z,75.18
2023-01-12T20:16:40.178Z,75.10
2023-01-12T20:19:13.039Z,74.82
2023-01-12T20:21:46.484Z,74.85
2023-01-12T20:24:19.105Z,75.13
2023-01-12T20:26:52.000Z,75.47
2023-01-12T20:29:24.929Z,75.24
2023-01-12T20:31:58.910Z,75.31
2023-01-12T20:34:32.165Z,75.22
2023-01-12T20:37:04.824Z,75.14
2023-01-12T20:39:37.753Z,75.24
2023-01-12T20:42:11.259Z,75.34
2023-01-12T20:44:44.171Z,75.19
2023-01-12T20:47:19.185Z,75.34
2023-01-12T20:49:51.879Z,75.49
2023-01-12T20:52:25.031Z,76.24
2023-01-12T20:54:57.459Z,76.54
2023-01-12T20:57:30.981Z,76.47
2023-01-12T21:00:03.919Z,76.72
2023-01-12T21:02:36.893Z,76.55
2023-01-12T21:05:11.006Z,76.21
2023-01-12T21:07:43.955Z,75.71
2023-01-12T21:10:17.135Z,76.22
2023-01-12T21:12:49.664Z,76.71
2023-01-12T21:15:22.285Z,76.34
2023-01-12T21:17:55.811Z,75.79
2023-01-12T21:20:28.327Z,75.96
2023-01-12T21:23:01.074Z,76.13
2023-01-12T21:25:33.584Z,75.92
2023-01-12T21:28:06.504Z,76.13
2023-01-12T21:30:40.048Z,75.82
2023-01-12T21:33:12.914Z,76.41
2023-01-12T21:35:45.533Z,76.28
2023-01-12T21:38:19.213Z,76.13
2023-01-12T21:40:51.647Z,76.69
2023-01-12T21:43:24.999Z,76.57
2023-01-12T21:46:03.855Z,76.33
2023-01-12T21:48:36.822Z,76.25
2023-01-12T21:51:13.096Z,76.40
2023-01-12T21:53:45.950Z,76.38
2023-01-12T21:56:18.489Z,76.42
2023-01-12T21:58:52.023Z,76.56
2023-01-12T22:01:24.893Z,76.37
2023-01-12T22:04:00.000Z,76.58
2023-01-12T22:06:32.595Z,76.43
2023-01-12T22:09:05.189Z,76.62
2023-01-12T22:11:37.902Z,76.36
2023-01-12T22:14:27.065Z,76.38
2023-01-12T22:16:59.514Z,76.67
2023-01-12T22:19:31.984Z,76.86
2023-01-12T22:22:06.350Z,77.08
2023-01-12T22:24:39.173Z,76.49
2023-01-12T22:27:11.637Z,76.81
2023-01-12T22:29:44.262Z,77.02
2023-01-12T22:32:17.104Z,77.44
2023-01-12T22:34:49.536Z,79.04
2023-01-12T22:37:22.036Z,79.50
2023-01-12T22:39:54.482Z,80.16
2023-01-12T22:42:47.107Z,80.85
2023-01-12T22:45:19.869Z,80.43
2023-01-12T22:47:55.470Z,81.18
2023-01-12T22:50:27.950Z,81.77
2023-01-12T22:53:00.333Z,81.66
2023-01-12T22:55:33.016Z,82.49
2023-01-12T22:58:06.566Z,83.03
2023-01-12T23:00:39.939Z,82.72
2023-01-12T23:03:14.280Z,83.42
2023-01-12T23:05:56.467Z,83.38
2023-01-12T23:08:29.023Z,83.45
2023-01-12T23:11:09.597Z,83.21
2023-01-12T23:13:43.771Z,83.93
2023-01-12T23:16:21.000Z,84.24
2023-01-12T23:18:55.437Z,85.39
2023-01-12T23:21:29.629Z,85.12
2023-01-12T23:24:04.007Z,85.40
2023-01-12T23:26:36.965Z,85.08
2023-01-12T23:29:09.641Z,85.20
2023-01-12T23:31:42.332Z,85.54
2023-01-12T23:34:14.958Z,85.45
2023-01-12T23:36:49.593Z,86.00
2023-01-12T23:39:21.899Z,86.02
2023-01-12T23:41:54.264Z,86.33
2023-01-12T23:44:26.599Z,86.61
2023-01-12T23:47:00.683Z,86.73
2023-01-12T23:49:33.114Z,86.38
2023-01-12T23:52:05.609Z,85.96
2023-01-12T23:54:38.756Z,86.16
2023-01-12T23:57:11.174Z,86.73
2023-01-12T23:59:43.590Z,86.74
